sensor_id;sensor_type;location;lat;lon;timestamp;P1;durP1;ratioP1;P2;durP2;ratioP2
23266;SDS011;11802;53.160;8.214;2022-07-18T00:01:55;11.10;;;5.05;;
23266;SDS011;11802;53.160;8.214;2022-07-18T00:04:22;7.50;;;4.45;;
23266;SDS011;11802;53.160;8.214;2022-07-18T00:06:48;8.18;;;4.18;;
23266;SDS011;11802;53.160;8.214;2022-07-18T00:09:13;7.13;;;4.30;;
23266;SDS011;11802;53.160;8.214;2022-07-18T00:11:39;8.88;;;4.15;;
23266;SDS011;11802;53.160;8.214;2022-07-18T00:14:05;6.30;;;3.55;;
23266;SDS011;11802;53.160;8.214;2022-07-18T00:16:30;6.38;;;3.60;;
23266;SDS011;11802;53.160;8.214;2022-07-18T00:18:56;8.25;;;4.00;;
23266;SDS011;11802;53.160;8.214;2022-07-18T00:21:23;8.13;;;3.38;;
23266;SDS011;11802;53.160;8.214;2022-07-18T00:23:52;6.53;;;4.22;;
23266;SDS011;11802;53.160;8.214;2022-07-18T00:26:17;7.40;;;3.90;;
23266;SDS011;11802;53.160;8.214;2022-07-18T00:28:43;8.63;;;3.60;;
23266;SDS011;11802;53.160;8.214;2022-07-18T00:31:08;6.70;;;3.72;;
23266;SDS011;11802;53.160;8.214;2022-07-18T00:33:34;6.88;;;3.65;;
23266;SDS011;11802;53.160;8.214;2022-07-18T00:35:59;6.68;;;3.72;;
23266;SDS011;11802;53.160;8.214;2022-07-18T00:38:25;7.65;;;3.53;;
23266;SDS011;11802;53.160;8.214;2022-07-18T00:40:51;6.55;;;3.70;;
23266;SDS011;11802;53.160;8.214;2022-07-18T00:43:16;7.32;;;3.83;;
23266;SDS011;11802;53.160;8.214;2022-07-18T00:45:48;5.90;;;3.35;;
23266;SDS011;11802;53.160;8.214;2022-07-18T00:48:15;6.57;;;3.40;;
23266;SDS011;11802;53.160;8.214;2022-07-18T00:50:42;5.30;;;3.13;;
23266;SDS011;11802;53.160;8.214;2022-07-18T00:53:09;6.72;;;3.35;;
23266;SDS011;11802;53.160;8.214;2022-07-18T00:55:37;6.57;;;3.38;;
23266;SDS011;11802;53.160;8.214;2022-07-18T00:58:04;5.90;;;2.92;;
23266;SDS011;11802;53.160;8.214;2022-07-18T01:00:29;7.10;;;3.53;;
23266;SDS011;11802;53.160;8.214;2022-07-18T01:03:14;8.32;;;3.17;;
23266;SDS011;11802;53.160;8.214;2022-07-18T01:05:39;8.55;;;3.15;;
23266;SDS011;11802;53.160;8.214;2022-07-18T01:08:05;5.13;;;3.08;;
23266;SDS011;11802;53.160;8.214;2022-07-18T01:10:30;8.45;;;3.33;;
23266;SDS011;11802;53.160;8.214;2022-07-18T01:12:56;4.75;;;3.03;;
23266;SDS011;11802;53.160;8.214;2022-07-18T01:15:22;5.18;;;2.78;;
23266;SDS011;11802;53.160;8.214;2022-07-18T01:17:47;5.43;;;3.10;;
23266;SDS011;11802;53.160;8.214;2022-07-18T01:20:14;6.15;;;3.15;;
23266;SDS011;11802;53.160;8.214;2022-07-18T01:22:40;7.65;;;3.25;;
23266;SDS011;11802;53.160;8.214;2022-07-18T01:27:37;5.10;;;3.17;;
23266;SDS011;11802;53.160;8.214;2022-07-18T01:30:06;5.63;;;3.35;;
23266;SDS011;11802;53.160;8.214;2022-07-18T01:32:32;8.05;;;3.55;;
23266;SDS011;11802;53.160;8.214;2022-07-18T01:34:58;5.75;;;3.63;;
23266;SDS011;11802;53.160;8.214;2022-07-18T01:37:23;4.78;;;3.30;;
23266;SDS011;11802;53.160;8.214;2022-07-18T01:39:49;5.47;;;3.50;;
23266;SDS011;11802;53.160;8.214;2022-07-18T01:42:14;6.93;;;3.47;;
23266;SDS011;11802;53.160;8.214;2022-07-18T01:44:40;6.03;;;3.00;;
23266;SDS011;11802;53.160;8.214;2022-07-18T01:47:06;7.25;;;3.58;;
23266;SDS011;11802;53.160;8.214;2022-07-18T01:49:33;5.47;;;3.30;;
23266;SDS011;11802;53.160;8.214;2022-07-18T01:52:00;7.88;;;3.50;;
23266;SDS011;11802;53.160;8.214;2022-07-18T01:54:26;5.88;;;3.50;;
23266;SDS011;11802;53.160;8.214;2022-07-18T01:56:54;6.22;;;3.65;;
23266;SDS011;11802;53.160;8.214;2022-07-18T01:59:20;5.80;;;3.40;;
23266;SDS011;11802;53.160;8.214;2022-07-18T02:01:47;8.18;;;3.33;;
23266;SDS011;11802;53.160;8.214;2022-07-18T02:04:13;5.93;;;3.40;;
23266;SDS011;11802;53.160;8.214;2022-07-18T02:06:39;8.98;;;3.95;;
23266;SDS011;11802;53.160;8.214;2022-07-18T02:09:05;6.75;;;3.42;;
23266;SDS011;11802;53.160;8.214;2022-07-18T02:11:31;6.00;;;3.70;;
23266;SDS011;11802;53.160;8.214;2022-07-18T02:13:57;6.70;;;3.30;;
23266;SDS011;11802;53.160;8.214;2022-07-18T02:16:22;6.85;;;3.55;;
23266;SDS011;11802;53.160;8.214;2022-07-18T02:18:48;5.38;;;3.10;;
23266;SDS011;11802;53.160;8.214;2022-07-18T02:21:13;8.20;;;3.58;;
23266;SDS011;11802;53.160;8.214;2022-07-18T02:23:40;5.78;;;3.17;;
23266;SDS011;11802;53.160;8.214;2022-07-18T02:26:07;5.38;;;3.28;;
23266;SDS011;11802;53.160;8.214;2022-07-18T02:28:33;6.25;;;3.40;;
23266;SDS011;11802;53.160;8.214;2022-07-18T02:30:58;7.55;;;3.33;;
23266;SDS011;11802;53.160;8.214;2022-07-18T02:33:24;5.30;;;3.00;;
23266;SDS011;11802;53.160;8.214;2022-07-18T02:35:50;7.72;;;3.33;;
23266;SDS011;11802;53.160;8.214;2022-07-18T02:38:16;6.30;;;3.33;;
23266;SDS011;11802;53.160;8.214;2022-07-18T02:40:41;7.32;;;3.67;;
23266;SDS011;11802;53.160;8.214;2022-07-18T02:43:07;8.10;;;4.10;;
23266;SDS011;11802;53.160;8.214;2022-07-18T02:45:32;8.35;;;4.32;;
23266;SDS011;11802;53.160;8.214;2022-07-18T02:47:58;5.50;;;3.00;;
23266;SDS011;11802;53.160;8.214;2022-07-18T02:50:24;7.07;;;3.63;;
23266;SDS011;11802;53.160;8.214;2022-07-18T02:52:49;5.90;;;3.70;;
23266;SDS011;11802;53.160;8.214;2022-07-18T02:55:15;7.25;;;3.35;;
23266;SDS011;11802;53.160;8.214;2022-07-18T02:57:41;6.28;;;3.30;;
23266;SDS011;11802;53.160;8.214;2022-07-18T03:00:08;7.35;;;3.70;;
23266;SDS011;11802;53.160;8.214;2022-07-18T03:02:36;4.90;;;2.95;;
23266;SDS011;11802;53.160;8.214;2022-07-18T03:05:02;6.10;;;3.45;;
23266;SDS011;11802;53.160;8.214;2022-07-18T03:07:28;6.80;;;3.53;;
23266;SDS011;11802;53.160;8.214;2022-07-18T03:09:54;5.55;;;3.17;;
23266;SDS011;11802;53.160;8.214;2022-07-18T03:12:20;7.05;;;3.30;;
23266;SDS011;11802;53.160;8.214;2022-07-18T03:14:45;6.95;;;3.40;;
23266;SDS011;11802;53.160;8.214;2022-07-18T03:17:11;6.85;;;3.42;;
23266;SDS011;11802;53.160;8.214;2022-07-18T03:19:36;5.20;;;3.03;;
23266;SDS011;11802;53.160;8.214;2022-07-18T03:22:03;5.45;;;3.20;;
23266;SDS011;11802;53.160;8.214;2022-07-18T03:24:29;6.38;;;3.28;;
23266;SDS011;11802;53.160;8.214;2022-07-18T03:26:55;5.07;;;3.38;;
23266;SDS011;11802;53.160;8.214;2022-07-18T03:29:21;6.57;;;3.08;;
23266;SDS011;11802;53.160;8.214;2022-07-18T03:31:47;6.57;;;3.35;;
23266;SDS011;11802;53.160;8.214;2022-07-18T03:34:13;7.45;;;3.08;;
23266;SDS011;11802;53.160;8.214;2022-07-18T03:36:38;7.53;;;3.47;;
23266;SDS011;11802;53.160;8.214;2022-07-18T03:39:04;7.03;;;3.05;;
23266;SDS011;11802;53.160;8.214;2022-07-18T03:41:31;6.65;;;2.95;;
23266;SDS011;11802;53.160;8.214;2022-07-18T03:43:56;6.45;;;3.22;;
23266;SDS011;11802;53.160;8.214;2022-07-18T03:46:22;5.70;;;3.08;;
23266;SDS011;11802;53.160;8.214;2022-07-18T03:48:48;5.72;;;3.15;;
23266;SDS011;11802;53.160;8.214;2022-07-18T03:51:13;7.82;;;3.15;;
23266;SDS011;11802;53.160;8.214;2022-07-18T03:53:39;7.55;;;3.35;;
23266;SDS011;11802;53.160;8.214;2022-07-18T03:56:04;5.22;;;2.85;;
23266;SDS011;11802;53.160;8.214;2022-07-18T03:58:30;7.38;;;3.65;;
23266;SDS011;11802;53.160;8.214;2022-07-18T04:00:55;7.35;;;3.10;;
23266;SDS011;11802;53.160;8.214;2022-07-18T04:03:21;7.00;;;2.78;;
23266;SDS011;11802;53.160;8.214;2022-07-18T04:05:47;5.07;;;3.03;;
23266;SDS011;11802;53.160;8.214;2022-07-18T04:08:12;5.00;;;2.95;;
23266;SDS011;11802;53.160;8.214;2022-07-18T04:10:38;7.43;;;2.78;;
23266;SDS011;11802;53.160;8.214;2022-07-18T04:13:05;4.57;;;2.78;;
23266;SDS011;11802;53.160;8.214;2022-07-18T04:15:31;7.28;;;3.15;;
23266;SDS011;11802;53.160;8.214;2022-07-18T04:17:57;5.63;;;3.10;;
23266;SDS011;11802;53.160;8.214;2022-07-18T04:20:23;5.75;;;2.80;;
23266;SDS011;11802;53.160;8.214;2022-07-18T04:22:55;7.65;;;3.05;;
23266;SDS011;11802;53.160;8.214;2022-07-18T04:25:23;6.20;;;2.70;;
23266;SDS011;11802;53.160;8.214;2022-07-18T04:27:54;6.53;;;3.17;;
23266;SDS011;11802;53.160;8.214;2022-07-18T04:30:21;5.43;;;2.40;;
23266;SDS011;11802;53.160;8.214;2022-07-18T04:32:48;4.97;;;2.33;;
23266;SDS011;11802;53.160;8.214;2022-07-18T04:35:15;8.35;;;2.53;;
23266;SDS011;11802;53.160;8.214;2022-07-18T04:37:41;5.95;;;2.15;;
23266;SDS011;11802;53.160;8.214;2022-07-18T04:40:07;8.52;;;2.83;;
23266;SDS011;11802;53.160;8.214;2022-07-18T04:42:34;4.22;;;2.38;;
23266;SDS011;11802;53.160;8.214;2022-07-18T04:45:00;4.03;;;2.38;;
23266;SDS011;11802;53.160;8.214;2022-07-18T04:47:26;5.15;;;2.45;;
23266;SDS011;11802;53.160;8.214;2022-07-18T04:49:52;4.40;;;2.13;;
23266;SDS011;11802;53.160;8.214;2022-07-18T04:52:18;3.75;;;2.40;;
23266;SDS011;11802;53.160;8.214;2022-07-18T04:54:43;4.93;;;2.35;;
23266;SDS011;11802;53.160;8.214;2022-07-18T04:57:09;5.05;;;1.75;;
23266;SDS011;11802;53.160;8.214;2022-07-18T04:59:37;5.90;;;2.55;;
23266;SDS011;11802;53.160;8.214;2022-07-18T05:02:03;5.45;;;2.33;;
23266;SDS011;11802;53.160;8.214;2022-07-18T05:04:29;7.18;;;3.25;;
23266;SDS011;11802;53.160;8.214;2022-07-18T05:06:55;5.72;;;2.40;;
23266;SDS011;11802;53.160;8.214;2022-07-18T05:09:20;6.28;;;2.42;;
23266;SDS011;11802;53.160;8.214;2022-07-18T05:11:46;6.35;;;2.75;;
23266;SDS011;11802;53.160;8.214;2022-07-18T05:14:11;6.68;;;2.30;;
23266;SDS011;11802;53.160;8.214;2022-07-18T05:16:37;5.45;;;2.80;;
23266;SDS011;11802;53.160;8.214;2022-07-18T05:19:02;5.10;;;2.50;;
23266;SDS011;11802;53.160;8.214;2022-07-18T05:21:28;5.97;;;2.70;;
23266;SDS011;11802;53.160;8.214;2022-07-18T05:23:55;7.68;;;2.63;;
23266;SDS011;11802;53.160;8.214;2022-07-18T05:26:21;7.28;;;2.72;;
23266;SDS011;11802;53.160;8.214;2022-07-18T05:28:46;4.25;;;2.35;;
23266;SDS011;11802;53.160;8.214;2022-07-18T05:31:12;6.65;;;2.83;;
23266;SDS011;11802;53.160;8.214;2022-07-18T05:33:38;4.55;;;2.28;;
23266;SDS011;11802;53.160;8.214;2022-07-18T05:36:04;5.95;;;2.17;;
23266;SDS011;11802;53.160;8.214;2022-07-18T05:38:29;4.53;;;2.38;;
23266;SDS011;11802;53.160;8.214;2022-07-18T05:40:55;7.55;;;2.20;;
23266;SDS011;11802;53.160;8.214;2022-07-18T05:43:21;6.32;;;2.35;;
23266;SDS011;11802;53.160;8.214;2022-07-18T05:45:46;6.32;;;2.50;;
23266;SDS011;11802;53.160;8.214;2022-07-18T05:48:12;5.35;;;2.40;;
23266;SDS011;11802;53.160;8.214;2022-07-18T05:50:37;3.85;;;1.92;;
23266;SDS011;11802;53.160;8.214;2022-07-18T05:53:03;4.78;;;2.08;;
23266;SDS011;11802;53.160;8.214;2022-07-18T05:55:28;6.60;;;2.85;;
23266;SDS011;11802;53.160;8.214;2022-07-18T05:57:54;6.75;;;2.35;;
23266;SDS011;11802;53.160;8.214;2022-07-18T06:00:19;3.40;;;2.10;;
23266;SDS011;11802;53.160;8.214;2022-07-18T06:02:47;5.82;;;2.10;;
23266;SDS011;11802;53.160;8.214;2022-07-18T06:05:14;5.60;;;2.10;;
23266;SDS011;11802;53.160;8.214;2022-07-18T06:07:39;4.50;;;1.67;;
23266;SDS011;11802;53.160;8.214;2022-07-18T06:10:05;4.55;;;2.13;;
23266;SDS011;11802;53.160;8.214;2022-07-18T06:12:31;5.68;;;1.98;;
23266;SDS011;11802;53.160;8.214;2022-07-18T06:14:57;4.05;;;2.20;;
23266;SDS011;11802;53.160;8.214;2022-07-18T06:17:23;5.18;;;2.05;;
23266;SDS011;11802;53.160;8.214;2022-07-18T06:19:49;5.45;;;2.08;;
23266;SDS011;11802;53.160;8.214;2022-07-18T06:22:14;4.25;;;1.70;;
23266;SDS011;11802;53.160;8.214;2022-07-18T06:24:40;26.02;;;2.42;;
23266;SDS011;11802;53.160;8.214;2022-07-18T06:27:05;4.90;;;1.73;;
23266;SDS011;11802;53.160;8.214;2022-07-18T06:29:31;4.25;;;2.13;;
23266;SDS011;11802;53.160;8.214;2022-07-18T06:31:57;5.28;;;1.88;;
23266;SDS011;11802;53.160;8.214;2022-07-18T06:34:22;4.32;;;1.90;;
23266;SDS011;11802;53.160;8.214;2022-07-18T06:36:48;4.15;;;2.15;;
23266;SDS011;11802;53.160;8.214;2022-07-18T06:39:13;4.05;;;1.85;;
23266;SDS011;11802;53.160;8.214;2022-07-18T06:41:41;4.53;;;1.85;;
23266;SDS011;11802;53.160;8.214;2022-07-18T06:44:07;4.15;;;1.75;;
23266;SDS011;11802;53.160;8.214;2022-07-18T06:46:33;3.30;;;1.40;;
23266;SDS011;11802;53.160;8.214;2022-07-18T06:48:58;5.25;;;1.75;;
23266;SDS011;11802;53.160;8.214;2022-07-18T06:51:24;4.05;;;1.83;;
23266;SDS011;11802;53.160;8.214;2022-07-18T06:53:50;2.72;;;1.50;;
23266;SDS011;11802;53.160;8.214;2022-07-18T06:56:16;3.33;;;1.80;;
23266;SDS011;11802;53.160;8.214;2022-07-18T06:58:41;3.42;;;1.40;;
23266;SDS011;11802;53.160;8.214;2022-07-18T07:01:13;4.32;;;1.60;;
23266;SDS011;11802;53.160;8.214;2022-07-18T07:03:39;4.50;;;1.50;;
23266;SDS011;11802;53.160;8.214;2022-07-18T07:06:05;4.38;;;1.30;;
23266;SDS011;11802;53.160;8.214;2022-07-18T07:08:30;4.57;;;1.58;;
23266;SDS011;11802;53.160;8.214;2022-07-18T07:10:56;6.45;;;1.90;;
23266;SDS011;11802;53.160;8.214;2022-07-18T07:13:21;5.55;;;1.85;;
23266;SDS011;11802;53.160;8.214;2022-07-18T07:15:47;5.60;;;1.90;;
23266;SDS011;11802;53.160;8.214;2022-07-18T07:18:12;3.03;;;1.45;;
23266;SDS011;11802;53.160;8.214;2022-07-18T07:20:38;3.25;;;1.67;;
23266;SDS011;11802;53.160;8.214;2022-07-18T07:23:03;5.93;;;1.95;;
23266;SDS011;11802;53.160;8.214;2022-07-18T07:25:32;4.35;;;1.67;;
23266;SDS011;11802;53.160;8.214;2022-07-18T07:27:58;4.97;;;2.00;;
23266;SDS011;11802;53.160;8.214;2022-07-18T07:30:24;3.30;;;1.30;;
23266;SDS011;11802;53.160;8.214;2022-07-18T07:32:49;5.07;;;1.75;;
23266;SDS011;11802;53.160;8.214;2022-07-18T07:35:16;3.03;;;1.52;;
23266;SDS011;11802;53.160;8.214;2022-07-18T07:37:43;7.30;;;1.98;;
23266;SDS011;11802;53.160;8.214;2022-07-18T07:40:12;3.30;;;1.40;;
23266;SDS011;11802;53.160;8.214;2022-07-18T07:42:39;5.95;;;1.83;;
23266;SDS011;11802;53.160;8.214;2022-07-18T07:45:05;8.02;;;1.67;;
23266;SDS011;11802;53.160;8.214;2022-07-18T07:47:31;3.58;;;1.60;;
23266;SDS011;11802;53.160;8.214;2022-07-18T07:49:57;4.18;;;1.40;;
23266;SDS011;11802;53.160;8.214;2022-07-18T07:52:24;7.40;;;1.67;;
23266;SDS011;11802;53.160;8.214;2022-07-18T07:54:52;4.22;;;1.73;;
23266;SDS011;11802;53.160;8.214;2022-07-18T07:57:18;4.25;;;1.40;;
23266;SDS011;11802;53.160;8.214;2022-07-18T07:59:44;5.78;;;1.60;;
23266;SDS011;11802;53.160;8.214;2022-07-18T08:02:09;6.18;;;1.83;;
23266;SDS011;11802;53.160;8.214;2022-07-18T08:04:35;2.42;;;1.40;;
23266;SDS011;11802;53.160;8.214;2022-07-18T08:07:00;4.47;;;1.63;;
23266;SDS011;11802;53.160;8.214;2022-07-18T08:09:26;5.88;;;1.70;;
23266;SDS011;11802;53.160;8.214;2022-07-18T08:11:52;3.00;;;1.10;;
23266;SDS011;11802;53.160;8.214;2022-07-18T08:14:17;3.85;;;1.45;;
23266;SDS011;11802;53.160;8.214;2022-07-18T08:16:43;4.20;;;1.60;;
23266;SDS011;11802;53.160;8.214;2022-07-18T08:19:09;4.95;;;1.60;;
23266;SDS011;11802;53.160;8.214;2022-07-18T08:21:34;5.28;;;1.50;;
23266;SDS011;11802;53.160;8.214;2022-07-18T08:24:00;4.55;;;1.40;;
23266;SDS011;11802;53.160;8.214;2022-07-18T08:26:26;3.40;;;1.52;;
23266;SDS011;11802;53.160;8.214;2022-07-18T08:28:52;3.10;;;1.30;;
23266;SDS011;11802;53.160;8.214;2022-07-18T08:31:17;4.78;;;1.70;;
23266;SDS011;11802;53.160;8.214;2022-07-18T08:33:44;5.10;;;1.60;;
23266;SDS011;11802;53.160;8.214;2022-07-18T08:36:10;2.42;;;1.20;;
23266;SDS011;11802;53.160;8.214;2022-07-18T08:38:36;2.80;;;1.38;;
23266;SDS011;11802;53.160;8.214;2022-07-18T08:41:02;3.05;;;1.40;;
23266;SDS011;11802;53.160;8.214;2022-07-18T08:43:28;3.00;;;1.25;;
23266;SDS011;11802;53.160;8.214;2022-07-18T08:45:55;2.92;;;1.33;;
23266;SDS011;11802;53.160;8.214;2022-07-18T08:48:27;3.50;;;1.48;;
23266;SDS011;11802;53.160;8.214;2022-07-18T08:50:53;3.42;;;1.38;;
23266;SDS011;11802;53.160;8.214;2022-07-18T08:53:19;5.47;;;1.77;;
23266;SDS011;11802;53.160;8.214;2022-07-18T08:55:46;3.95;;;1.58;;
23266;SDS011;11802;53.160;8.214;2022-07-18T08:58:12;2.22;;;1.33;;
23266;SDS011;11802;53.160;8.214;2022-07-18T09:00:40;2.75;;;1.45;;
23266;SDS011;11802;53.160;8.214;2022-07-18T09:03:06;4.22;;;1.65;;
23266;SDS011;11802;53.160;8.214;2022-07-18T09:05:32;3.22;;;1.48;;
23266;SDS011;11802;53.160;8.214;2022-07-18T09:08:08;2.90;;;1.65;;
23266;SDS011;11802;53.160;8.214;2022-07-18T09:13:15;5.40;;;2.13;;
23266;SDS011;11802;53.160;8.214;2022-07-18T09:15:56;2.95;;;2.17;;
23266;SDS011;11802;53.160;8.214;2022-07-18T09:18:39;4.63;;;1.90;;
23266;SDS011;11802;53.160;8.214;2022-07-18T09:21:07;4.45;;;2.40;;
23266;SDS011;11802;53.160;8.214;2022-07-18T09:23:36;5.10;;;2.30;;
23266;SDS011;11802;53.160;8.214;2022-07-18T09:26:04;5.70;;;2.30;;
23266;SDS011;11802;53.160;8.214;2022-07-18T09:28:47;4.10;;;2.78;;
23266;SDS011;11802;53.160;8.214;2022-07-18T09:31:20;4.32;;;2.17;;
23266;SDS011;11802;53.160;8.214;2022-07-18T09:34:00;3.95;;;2.20;;
23266;SDS011;11802;53.160;8.214;2022-07-18T09:36:27;5.03;;;2.35;;
23266;SDS011;11802;53.160;8.214;2022-07-18T09:38:53;4.85;;;2.40;;
23266;SDS011;11802;53.160;8.214;2022-07-18T09:41:23;5.10;;;2.50;;
23266;SDS011;11802;53.160;8.214;2022-07-18T09:43:50;4.43;;;2.30;;
23266;SDS011;11802;53.160;8.214;2022-07-18T09:46:16;4.43;;;2.53;;
23266;SDS011;11802;53.160;8.214;2022-07-18T09:48:41;6.15;;;2.90;;
23266;SDS011;11802;53.160;8.214;2022-07-18T09:51:07;4.38;;;2.40;;
23266;SDS011;11802;53.160;8.214;2022-07-18T09:53:39;6.28;;;2.58;;
23266;SDS011;11802;53.160;8.214;2022-07-18T09:56:07;6.53;;;2.60;;
23266;SDS011;11802;53.160;8.214;2022-07-18T09:58:39;6.93;;;3.00;;
23266;SDS011;11802;53.160;8.214;2022-07-18T10:01:07;6.63;;;2.90;;
23266;SDS011;11802;53.160;8.214;2022-07-18T10:03:35;7.05;;;3.00;;
23266;SDS011;11802;53.160;8.214;2022-07-18T10:06:02;4.63;;;3.05;;
23266;SDS011;11802;53.160;8.214;2022-07-18T10:08:29;5.30;;;3.08;;
23266;SDS011;11802;53.160;8.214;2022-07-18T10:10:57;4.10;;;3.00;;
23266;SDS011;11802;53.160;8.214;2022-07-18T10:13:25;6.47;;;3.50;;
23266;SDS011;11802;53.160;8.214;2022-07-18T10:15:52;6.82;;;3.30;;
23266;SDS011;11802;53.160;8.214;2022-07-18T10:18:19;6.38;;;3.47;;
23266;SDS011;11802;53.160;8.214;2022-07-18T10:21:28;5.88;;;3.47;;
23266;SDS011;11802;53.160;8.214;2022-07-18T10:23:43;7.30;;;3.65;;
23266;SDS011;11802;53.160;8.214;2022-07-18T10:26:17;6.15;;;3.92;;
23266;SDS011;11802;53.160;8.214;2022-07-18T10:31:38;7.35;;;4.03;;
23266;SDS011;11802;53.160;8.214;2022-07-18T10:39:03;7.95;;;3.45;;
23266;SDS011;11802;53.160;8.214;2022-07-18T10:47:04;8.15;;;3.75;;
23266;SDS011;11802;53.160;8.214;2022-07-18T10:57:32;6.47;;;3.80;;
23266;SDS011;11802;53.160;8.214;2022-07-18T11:02:40;7.35;;;4.35;;
23266;SDS011;11802;53.160;8.214;2022-07-18T11:16:10;9.60;;;4.95;;
23266;SDS011;11802;53.160;8.214;2022-07-18T11:24:00;7.07;;;4.57;;
23266;SDS011;11802;53.160;8.214;2022-07-18T11:26:26;6.97;;;4.50;;
23266;SDS011;11802;53.160;8.214;2022-07-18T11:29:00;7.35;;;4.38;;
23266;SDS011;11802;53.160;8.214;2022-07-18T11:31:28;7.15;;;4.50;;
23266;SDS011;11802;53.160;8.214;2022-07-18T11:33:55;7.30;;;5.05;;
23266;SDS011;11802;53.160;8.214;2022-07-18T11:36:27;8.50;;;4.88;;
23266;SDS011;11802;53.160;8.214;2022-07-18T11:38:56;6.57;;;4.82;;
23266;SDS011;11802;53.160;8.214;2022-07-18T11:41:23;9.05;;;5.38;;
23266;SDS011;11802;53.160;8.214;2022-07-18T11:43:49;6.78;;;4.28;;
23266;SDS011;11802;53.160;8.214;2022-07-18T11:46:17;6.90;;;4.68;;
23266;SDS011;11802;53.160;8.214;2022-07-18T11:48:48;7.55;;;5.20;;
23266;SDS011;11802;53.160;8.214;2022-07-18T11:51:22;6.85;;;4.93;;
23266;SDS011;11802;53.160;8.214;2022-07-18T11:53:51;8.50;;;4.65;;
23266;SDS011;11802;53.160;8.214;2022-07-18T11:56:18;7.32;;;4.00;;
23266;SDS011;11802;53.160;8.214;2022-07-18T11:58:47;6.85;;;4.38;;
23266;SDS011;11802;53.160;8.214;2022-07-18T12:01:14;9.88;;;5.10;;
23266;SDS011;11802;53.160;8.214;2022-07-18T12:03:41;6.80;;;4.57;;
23266;SDS011;11802;53.160;8.214;2022-07-18T12:06:13;7.55;;;4.65;;
23266;SDS011;11802;53.160;8.214;2022-07-18T12:08:44;7.22;;;4.70;;
23266;SDS011;11802;53.160;8.214;2022-07-18T12:16:28;7.95;;;4.57;;
23266;SDS011;11802;53.160;8.214;2022-07-18T12:19:05;6.63;;;4.28;;
23266;SDS011;11802;53.160;8.214;2022-07-18T12:21:38;6.45;;;4.22;;
23266;SDS011;11802;53.160;8.214;2022-07-18T12:24:20;6.80;;;4.20;;
23266;SDS011;11802;53.160;8.214;2022-07-18T12:27:09;6.97;;;3.78;;
23266;SDS011;11802;53.160;8.214;2022-07-18T12:37:39;7.60;;;4.35;;
23266;SDS011;11802;53.160;8.214;2022-07-18T12:40:09;7.13;;;4.15;;
23266;SDS011;11802;53.160;8.214;2022-07-18T12:45:02;6.10;;;3.83;;
23266;SDS011;11802;53.160;8.214;2022-07-18T12:47:28;5.40;;;3.70;;
23266;SDS011;11802;53.160;8.214;2022-07-18T12:49:54;7.78;;;4.13;;
23266;SDS011;11802;53.160;8.214;2022-07-18T12:52:20;6.88;;;3.97;;
23266;SDS011;11802;53.160;8.214;2022-07-18T12:54:46;8.00;;;3.88;;
23266;SDS011;11802;53.160;8.214;2022-07-18T12:57:12;5.38;;;3.80;;
23266;SDS011;11802;53.160;8.214;2022-07-18T12:59:38;8.68;;;4.00;;
23266;SDS011;11802;53.160;8.214;2022-07-18T13:02:03;4.78;;;3.42;;
23266;SDS011;11802;53.160;8.214;2022-07-18T13:04:29;8.57;;;4.25;;
23266;SDS011;11802;53.160;8.214;2022-07-18T13:06:55;6.43;;;3.88;;
23266;SDS011;11802;53.160;8.214;2022-07-18T13:09:20;6.05;;;3.85;;
23266;SDS011;11802;53.160;8.214;2022-07-18T13:11:46;6.05;;;3.78;;
23266;SDS011;11802;53.160;8.214;2022-07-18T13:14:13;5.65;;;3.60;;
23266;SDS011;11802;53.160;8.214;2022-07-18T13:16:40;8.05;;;4.35;;
23266;SDS011;11802;53.160;8.214;2022-07-18T13:19:14;7.80;;;4.10;;
23266;SDS011;11802;53.160;8.214;2022-07-18T13:21:40;6.40;;;3.80;;
23266;SDS011;11802;53.160;8.214;2022-07-18T13:24:06;7.40;;;3.75;;
23266;SDS011;11802;53.160;8.214;2022-07-18T13:26:32;5.72;;;3.95;;
23266;SDS011;11802;53.160;8.214;2022-07-18T13:28:58;6.93;;;4.10;;
23266;SDS011;11802;53.160;8.214;2022-07-18T13:31:23;6.60;;;4.20;;
23266;SDS011;11802;53.160;8.214;2022-07-18T13:33:49;6.35;;;4.30;;
23266;SDS011;11802;53.160;8.214;2022-07-18T13:36:18;8.68;;;4.50;;
23266;SDS011;11802;53.160;8.214;2022-07-18T13:38:44;8.10;;;4.13;;
23266;SDS011;11802;53.160;8.214;2022-07-18T13:41:11;5.88;;;4.13;;
23266;SDS011;11802;53.160;8.214;2022-07-18T13:43:37;6.97;;;3.90;;
23266;SDS011;11802;53.160;8.214;2022-07-18T13:46:09;7.35;;;4.32;;
23266;SDS011;11802;53.160;8.214;2022-07-18T13:48:37;7.57;;;4.30;;
23266;SDS011;11802;53.160;8.214;2022-07-18T13:51:04;8.32;;;4.50;;
23266;SDS011;11802;53.160;8.214;2022-07-18T13:53:30;8.07;;;4.63;;
23266;SDS011;11802;53.160;8.214;2022-07-18T13:55:56;6.53;;;4.03;;
23266;SDS011;11802;53.160;8.214;2022-07-18T13:58:22;6.30;;;3.95;;
23266;SDS011;11802;53.160;8.214;2022-07-18T14:00:48;6.40;;;4.22;;
23266;SDS011;11802;53.160;8.214;2022-07-18T14:03:13;7.30;;;3.95;;
23266;SDS011;11802;53.160;8.214;2022-07-18T14:05:40;7.05;;;4.38;;
23266;SDS011;11802;53.160;8.214;2022-07-18T14:08:06;6.72;;;3.88;;
23266;SDS011;11802;53.160;8.214;2022-07-18T14:10:32;7.85;;;4.30;;
23266;SDS011;11802;53.160;8.214;2022-07-18T14:12:59;5.80;;;3.92;;
23266;SDS011;11802;53.160;8.214;2022-07-18T14:15:24;6.93;;;4.05;;
23266;SDS011;11802;53.160;8.214;2022-07-18T14:17:50;6.25;;;3.50;;
23266;SDS011;11802;53.160;8.214;2022-07-18T14:20:16;5.88;;;3.53;;
23266;SDS011;11802;53.160;8.214;2022-07-18T14:22:42;5.47;;;3.70;;
23266;SDS011;11802;53.160;8.214;2022-07-18T14:25:10;8.40;;;4.10;;
23266;SDS011;11802;53.160;8.214;2022-07-18T14:27:37;5.90;;;3.90;;
23266;SDS011;11802;53.160;8.214;2022-07-18T14:30:03;5.13;;;4.00;;
23266;SDS011;11802;53.160;8.214;2022-07-18T14:32:30;8.50;;;3.92;;
23266;SDS011;11802;53.160;8.214;2022-07-18T14:34:56;6.75;;;4.00;;
23266;SDS011;11802;53.160;8.214;2022-07-18T14:37:22;6.55;;;4.28;;
23266;SDS011;11802;53.160;8.214;2022-07-18T14:39:48;6.85;;;3.90;;
23266;SDS011;11802;53.160;8.214;2022-07-18T14:42:13;4.95;;;3.42;;
23266;SDS011;11802;53.160;8.214;2022-07-18T14:44:39;6.30;;;3.67;;
23266;SDS011;11802;53.160;8.214;2022-07-18T14:47:05;9.85;;;3.55;;
23266;SDS011;11802;53.160;8.214;2022-07-18T14:49:30;6.72;;;3.90;;
23266;SDS011;11802;53.160;8.214;2022-07-18T14:51:56;5.40;;;3.55;;
23266;SDS011;11802;53.160;8.214;2022-07-18T14:54:23;6.13;;;3.58;;
23266;SDS011;11802;53.160;8.214;2022-07-18T14:56:48;5.93;;;3.90;;
23266;SDS011;11802;53.160;8.214;2022-07-18T14:59:14;7.25;;;3.70;;
23266;SDS011;11802;53.160;8.214;2022-07-18T15:01:39;5.72;;;3.42;;
23266;SDS011;11802;53.160;8.214;2022-07-18T15:04:05;7.18;;;3.67;;
23266;SDS011;11802;53.160;8.214;2022-07-18T15:06:30;5.82;;;3.65;;
23266;SDS011;11802;53.160;8.214;2022-07-18T15:08:56;8.18;;;3.50;;
23266;SDS011;11802;53.160;8.214;2022-07-18T15:11:21;7.15;;;4.00;;
23266;SDS011;11802;53.160;8.214;2022-07-18T15:13:49;6.35;;;3.60;;
23266;SDS011;11802;53.160;8.214;2022-07-18T15:16:15;7.15;;;3.40;;
23266;SDS011;11802;53.160;8.214;2022-07-18T15:18:41;7.82;;;3.80;;
23266;SDS011;11802;53.160;8.214;2022-07-18T15:21:07;6.30;;;3.47;;
23266;SDS011;11802;53.160;8.214;2022-07-18T15:23:33;7.93;;;3.63;;
23266;SDS011;11802;53.160;8.214;2022-07-18T15:25:58;6.68;;;3.30;;
23266;SDS011;11802;53.160;8.214;2022-07-18T15:28:24;7.78;;;3.42;;
23266;SDS011;11802;53.160;8.214;2022-07-18T15:30:50;6.85;;;3.35;;
23266;SDS011;11802;53.160;8.214;2022-07-18T15:33:16;6.20;;;3.78;;
23266;SDS011;11802;53.160;8.214;2022-07-18T15:35:42;7.10;;;3.70;;
23266;SDS011;11802;53.160;8.214;2022-07-18T15:38:08;7.88;;;3.15;;
23266;SDS011;11802;53.160;8.214;2022-07-18T15:40:34;5.35;;;3.25;;
23266;SDS011;11802;53.160;8.214;2022-07-18T15:42:59;7.05;;;3.40;;
23266;SDS011;11802;53.160;8.214;2022-07-18T15:45:25;11.20;;;3.67;;
23266;SDS011;11802;53.160;8.214;2022-07-18T15:47:51;5.47;;;3.22;;